sensor_id;sensor_type;location;lat;lon;timestamp;temperature;humidity
25652;DHT22;13508;50.734;4.232;2023-12-07T00:01:08;4.30;99.90
25652;DHT22;13508;50.734;4.232;2023-12-07T00:04:11;4.20;99.90
25652;DHT22;13508;50.734;4.232;2023-12-07T00:07:14;4.30;99.90
25652;DHT22;13508;50.734;4.232;2023-12-07T00:10:18;4.30;99.90
25652;DHT22;13508;50.734;4.232;2023-12-07T00:13:21;4.30;99.90
25652;DHT22;13508;50.734;4.232;2023-12-07T00:16:25;4.30;99.90
25652;DHT22;13508;50.734;4.232;2023-12-07T00:19:29;4.20;99.90
25652;DHT22;13508;50.734;4.232;2023-12-07T00:22:36;4.30;99.90
25652;DHT22;13508;50.734;4.232;2023-12-07T00:25:39;4.40;99.90
25652;DHT22;13508;50.734;4.232;2023-12-07T00:28:42;4.60;99.90
25652;DHT22;13508;50.734;4.232;2023-12-07T00:31:46;4.70;99.90
25652;DHT22;13508;50.734;4.232;2023-12-07T00:34:49;4.70;99.90
25652;DHT22;13508;50.734;4.232;2023-12-07T00:37:53;4.50;99.90
25652;DHT22;13508;50.734;4.232;2023-12-07T00:40:57;4.20;99.90
25652;DHT22;13508;50.734;4.232;2023-12-07T00:44:01;4.10;99.90
25652;DHT22;13508;50.734;4.232;2023-12-07T00:47:04;4.20;99.90
25652;DHT22;13508;50.734;4.232;2023-12-07T00:50:08;4.20;99.90
25652;DHT22;13508;50.734;4.232;2023-12-07T00:53:15;4.40;99.90
25652;DHT22;13508;50.734;4.232;2023-12-07T00:56:18;4.60;99.90
25652;DHT22;13508;50.734;4.232;2023-12-07T00:59:22;4.80;99.90
25652;DHT22;13508;50.734;4.232;2023-12-07T01:02:25;4.80;99.90
25652;DHT22;13508;50.734;4.232;2023-12-07T01:05:29;4.90;99.90
25652;DHT22;13508;50.734;4.232;2023-12-07T01:08:36;4.50;99.90
25652;DHT22;13508;50.734;4.232;2023-12-07T01:11:39;4.30;99.90
25652;DHT22;13508;50.734;4.232;2023-12-07T01:14:43;4.10;99.90
25652;DHT22;13508;50.734;4.232;2023-12-07T01:17:47;4.20;99.90
25652;DHT22;13508;50.734;4.232;2023-12-07T01:20:53;4.10;99.90
25652;DHT22;13508;50.734;4.232;2023-12-07T01:23:57;4.10;99.90
25652;DHT22;13508;50.734;4.232;2023-12-07T01:27:01;4.10;99.90
25652;DHT22;13508;50.734;4.232;2023-12-07T01:30:05;3.70;99.90
25652;DHT22;13508;50.734;4.232;2023-12-07T01:33:09;3.70;99.90
25652;DHT22;13508;50.734;4.232;2023-12-07T01:36:12;4.00;99.90
25652;DHT22;13508;50.734;4.232;2023-12-07T01:39:16;4.10;99.90
25652;DHT22;13508;50.734;4.232;2023-12-07T01:42:20;4.20;99.90
25652;DHT22;13508;50.734;4.232;2023-12-07T01:45:26;4.30;99.90
25652;DHT22;13508;50.734;4.232;2023-12-07T01:48:30;4.40;99.90
25652;DHT22;13508;50.734;4.232;2023-12-07T01:51:33;4.50;99.90
25652;DHT22;13508;50.734;4.232;2023-12-07T01:54:38;4.40;99.90
25652;DHT22;13508;50.734;4.232;2023-12-07T01:57:44;4.40;99.90
25652;DHT22;13508;50.734;4.232;2023-12-07T02:00:48;4.50;99.90
25652;DHT22;13508;50.734;4.232;2023-12-07T02:03:54;4.70;99.90
25652;DHT22;13508;50.734;4.232;2023-12-07T02:07:01;4.60;99.90
25652;DHT22;13508;50.734;4.232;2023-12-07T02:10:06;4.40;99.90
25652;DHT22;13508;50.734;4.232;2023-12-07T02:13:10;4.40;99.90
25652;DHT22;13508;50.734;4.232;2023-12-07T02:16:33;4.60;99.90
25652;DHT22;13508;50.734;4.232;2023-12-07T02:23:10;4.90;99.90
25652;DHT22;13508;50.734;4.232;2023-12-07T02:26:18;4.90;99.90
25652;DHT22;13508;50.734;4.232;2023-12-07T02:29:22;4.90;99.90
25652;DHT22;13508;50.734;4.232;2023-12-07T02:32:26;4.90;99.90
25652;DHT22;13508;50.734;4.232;2023-12-07T02:35:29;4.90;99.90
25652;DHT22;13508;50.734;4.232;2023-12-07T02:38:35;5.10;99.90
25652;DHT22;13508;50.734;4.232;2023-12-07T02:41:41;5.00;99.90
25652;DHT22;13508;50.734;4.232;2023-12-07T02:44:44;5.10;99.90
25652;DHT22;13508;50.734;4.232;2023-12-07T02:47:48;5.20;99.90
25652;DHT22;13508;50.734;4.232;2023-12-07T02:50:52;5.30;99.90
25652;DHT22;13508;50.734;4.232;2023-12-07T02:53:55;5.00;99.90
25652;DHT22;13508;50.734;4.232;2023-12-07T02:56:59;4.90;99.90
25652;DHT22;13508;50.734;4.232;2023-12-07T03:00:03;4.70;99.90
25652;DHT22;13508;50.734;4.232;2023-12-07T03:03:13;4.80;99.90
25652;DHT22;13508;50.734;4.232;2023-12-07T03:06:19;4.80;99.90
25652;DHT22;13508;50.734;4.232;2023-12-07T03:09:22;4.80;99.90
25652;DHT22;13508;50.734;4.232;2023-12-07T03:12:31;4.90;99.90
25652;DHT22;13508;50.734;4.232;2023-12-07T03:15:34;4.90;99.90
25652;DHT22;13508;50.734;4.232;2023-12-07T03:18:38;4.80;99.90
25652;DHT22;13508;50.734;4.232;2023-12-07T03:21:42;4.80;99.90
25652;DHT22;13508;50.734;4.232;2023-12-07T03:24:51;4.60;99.90
25652;DHT22;13508;50.734;4.232;2023-12-07T03:27:55;4.60;99.90
25652;DHT22;13508;50.734;4.232;2023-12-07T03:30:58;5.00;99.90
25652;DHT22;13508;50.734;4.232;2023-12-07T03:34:07;4.80;99.90
25652;DHT22;13508;50.734;4.232;2023-12-07T03:37:10;4.70;99.90
25652;DHT22;13508;50.734;4.232;2023-12-07T03:40:16;4.60;99.90
25652;DHT22;13508;50.734;4.232;2023-12-07T03:43:20;4.30;99.90
25652;DHT22;13508;50.734;4.232;2023-12-07T03:46:26;4.20;99.90
25652;DHT22;13508;50.734;4.232;2023-12-07T03:49:29;4.20;99.90
25652;DHT22;13508;50.734;4.232;2023-12-07T03:52:33;4.20;99.90
25652;DHT22;13508;50.734;4.232;2023-12-07T03:55:39;4.60;99.90
25652;DHT22;13508;50.734;4.232;2023-12-07T03:58:42;4.60;99.90
25652;DHT22;13508;50.734;4.232;2023-12-07T04:01:45;4.50;99.90
25652;DHT22;13508;50.734;4.232;2023-12-07T04:04:49;4.40;99.90
25652;DHT22;13508;50.734;4.232;2023-12-07T04:07:53;4.20;99.90
25652;DHT22;13508;50.734;4.232;2023-12-07T04:10:57;4.40;99.90
25652;DHT22;13508;50.734;4.232;2023-12-07T04:14:00;4.60;99.90
25652;DHT22;13508;50.734;4.232;2023-12-07T04:17:06;4.50;99.90
25652;DHT22;13508;50.734;4.232;2023-12-07T04:20:10;4.60;99.90
25652;DHT22;13508;50.734;4.232;2023-12-07T04:23:14;4.60;99.90
25652;DHT22;13508;50.734;4.232;2023-12-07T04:26:18;4.60;99.90
25652;DHT22;13508;50.734;4.232;2023-12-07T04:29:21;4.60;99.90
25652;DHT22;13508;50.734;4.232;2023-12-07T04:32:25;4.60;99.90
25652;DHT22;13508;50.734;4.232;2023-12-07T04:35:28;4.40;99.90
25652;DHT22;13508;50.734;4.232;2023-12-07T04:38:32;4.40;99.90
25652;DHT22;13508;50.734;4.232;2023-12-07T04:41:35;4.30;99.90
25652;DHT22;13508;50.734;4.232;2023-12-07T04:44:39;4.20;99.90
25652;DHT22;13508;50.734;4.232;2023-12-07T04:47:42;4.10;99.90
25652;DHT22;13508;50.734;4.232;2023-12-07T04:50:46;4.10;99.90
25652;DHT22;13508;50.734;4.232;2023-12-07T04:53:50;4.40;99.90
25652;DHT22;13508;50.734;4.232;2023-12-07T04:56:54;4.60;99.90
25652;DHT22;13508;50.734;4.232;2023-12-07T04:59:58;4.70;99.90
25652;DHT22;13508;50.734;4.232;2023-12-07T05:03:02;4.50;99.90
25652;DHT22;13508;50.734;4.232;2023-12-07T05:06:07;4.40;99.90
25652;DHT22;13508;50.734;4.232;2023-12-07T05:09:10;4.30;99.90
25652;DHT22;13508;50.734;4.232;2023-12-07T05:12:15;4.30;99.90
25652;DHT22;13508;50.734;4.232;2023-12-07T05:15:19;4.70;99.90
25652;DHT22;13508;50.734;4.232;2023-12-07T05:18:23;4.70;99.90
25652;DHT22;13508;50.734;4.232;2023-12-07T05:21:26;4.60;99.90
25652;DHT22;13508;50.734;4.232;2023-12-07T05:24:30;4.70;99.90
25652;DHT22;13508;50.734;4.232;2023-12-07T05:27:35;4.70;99.90
25652;DHT22;13508;50.734;4.232;2023-12-07T05:30:39;4.50;99.90
25652;DHT22;13508;50.734;4.232;2023-12-07T05:33:43;4.70;99.90
25652;DHT22;13508;50.734;4.232;2023-12-07T05:36:49;4.80;99.90
25652;DHT22;13508;50.734;4.232;2023-12-07T05:39:53;4.60;99.90
25652;DHT22;13508;50.734;4.232;2023-12-07T05:42:57;4.40;99.90
25652;DHT22;13508;50.734;4.232;2023-12-07T05:46:01;4.30;99.90
25652;DHT22;13508;50.734;4.232;2023-12-07T05:49:04;4.20;99.90
25652;DHT22;13508;50.734;4.232;2023-12-07T05:52:11;4.20;99.90
25652;DHT22;13508;50.734;4.232;2023-12-07T05:55:14;4.10;99.90
25652;DHT22;13508;50.734;4.232;2023-12-07T05:58:18;4.00;99.90
25652;DHT22;13508;50.734;4.232;2023-12-07T06:01:22;4.00;99.90
25652;DHT22;13508;50.734;4.232;2023-12-07T06:04:27;3.90;99.90
25652;DHT22;13508;50.734;4.232;2023-12-07T06:07:31;4.00;99.90
25652;DHT22;13508;50.734;4.232;2023-12-07T06:10:35;4.10;99.90
25652;DHT22;13508;50.734;4.232;2023-12-07T06:13:39;4.10;99.90
25652;DHT22;13508;50.734;4.232;2023-12-07T06:16:43;4.00;99.90
25652;DHT22;13508;50.734;4.232;2023-12-07T06:19:47;4.10;99.90
25652;DHT22;13508;50.734;4.232;2023-12-07T06:22:50;3.90;99.90
25652;DHT22;13508;50.734;4.232;2023-12-07T06:25:54;4.00;99.90
25652;DHT22;13508;50.734;4.232;2023-12-07T06:28:58;4.00;99.90
25652;DHT22;13508;50.734;4.232;2023-12-07T06:32:01;3.90;99.90
25652;DHT22;13508;50.734;4.232;2023-12-07T06:35:05;4.00;99.90
25652;DHT22;13508;50.734;4.232;2023-12-07T06:38:09;3.70;99.90
25652;DHT22;13508;50.734;4.232;2023-12-07T06:41:14;3.80;99.90
25652;DHT22;13508;50.734;4.232;2023-12-07T06:44:18;3.80;99.90
25652;DHT22;13508;50.734;4.232;2023-12-07T06:47:22;3.70;99.90
25652;DHT22;13508;50.734;4.232;2023-12-07T06:50:26;3.60;99.90
25652;DHT22;13508;50.734;4.232;2023-12-07T06:53:30;3.80;99.90
25652;DHT22;13508;50.734;4.232;2023-12-07T06:56:34;3.90;99.90
25652;DHT22;13508;50.734;4.232;2023-12-07T06:59:38;4.00;99.90
25652;DHT22;13508;50.734;4.232;2023-12-07T07:02:43;4.20;99.90
25652;DHT22;13508;50.734;4.232;2023-12-07T07:05:48;4.30;99.90
25652;DHT22;13508;50.734;4.232;2023-12-07T07:08:52;4.30;99.90
25652;DHT22;13508;50.734;4.232;2023-12-07T07:11:58;4.30;99.90
25652;DHT22;13508;50.734;4.232;2023-12-07T07:15:01;4.00;99.90
25652;DHT22;13508;50.734;4.232;2023-12-07T07:18:05;3.90;99.90
25652;DHT22;13508;50.734;4.232;2023-12-07T07:21:09;3.90;99.90
25652;DHT22;13508;50.734;4.232;2023-12-07T07:24:12;4.00;99.90
25652;DHT22;13508;50.734;4.232;2023-12-07T07:27:17;4.20;99.90
25652;DHT22;13508;50.734;4.232;2023-12-07T07:30:21;4.10;99.90
25652;DHT22;13508;50.734;4.232;2023-12-07T07:33:25;4.10;99.90
25652;DHT22;13508;50.734;4.232;2023-12-07T07:36:28;3.80;99.90
25652;DHT22;13508;50.734;4.232;2023-12-07T07:39:31;3.70;99.90
25652;DHT22;13508;50.734;4.232;2023-12-07T07:42:35;3.80;99.90
25652;DHT22;13508;50.734;4.232;2023-12-07T07:45:39;3.90;99.90
25652;DHT22;13508;50.734;4.232;2023-12-07T07:48:42;4.10;99.90
25652;DHT22;13508;50.734;4.232;2023-12-07T07:51:46;4.30;99.90
25652;DHT22;13508;50.734;4.232;2023-12-07T07:54:50;4.50;99.90
25652;DHT22;13508;50.734;4.232;2023-12-07T07:57:53;4.60;99.90
25652;DHT22;13508;50.734;4.232;2023-12-07T08:00:57;4.70;99.90
25652;DHT22;13508;50.734;4.232;2023-12-07T08:04:01;4.50;99.90
25652;DHT22;13508;50.734;4.232;2023-12-07T08:07:04;4.50;99.90
25652;DHT22;13508;50.734;4.232;2023-12-07T08:10:08;4.50;99.90
25652;DHT22;13508;50.734;4.232;2023-12-07T08:13:11;4.60;99.90
25652;DHT22;13508;50.734;4.232;2023-12-07T08:16:15;4.80;99.90
25652;DHT22;13508;50.734;4.232;2023-12-07T08:19:19;4.80;99.90
25652;DHT22;13508;50.734;4.232;2023-12-07T08:22:22;4.80;99.90
25652;DHT22;13508;50.734;4.232;2023-12-07T08:25:26;4.80;99.90
25652;DHT22;13508;50.734;4.232;2023-12-07T08:28:30;4.80;99.90
25652;DHT22;13508;50.734;4.232;2023-12-07T08:31:34;4.90;99.90
25652;DHT22;13508;50.734;4.232;2023-12-07T08:34:37;5.00;99.90
25652;DHT22;13508;50.734;4.232;2023-12-07T08:37:41;5.10;99.90
25652;DHT22;13508;50.734;4.232;2023-12-07T08:40:45;5.20;99.90
25652;DHT22;13508;50.734;4.232;2023-12-07T08:43:49;5.30;99.90
25652;DHT22;13508;50.734;4.232;2023-12-07T08:46:52;5.30;99.90
25652;DHT22;13508;50.734;4.232;2023-12-07T08:49:56;5.30;99.90
25652;DHT22;13508;50.734;4.232;2023-12-07T08:53:00;5.30;99.90
25652;DHT22;13508;50.734;4.232;2023-12-07T08:56:03;5.30;99.90
25652;DHT22;13508;50.734;4.232;2023-12-07T08:59:06;5.10;99.90
25652;DHT22;13508;50.734;4.232;2023-12-07T09:02:11;5.10;99.90
25652;DHT22;13508;50.734;4.232;2023-12-07T09:05:15;5.30;99.90
25652;DHT22;13508;50.734;4.232;2023-12-07T09:08:19;5.50;99.90
25652;DHT22;13508;50.734;4.232;2023-12-07T09:11:22;5.80;99.90
25652;DHT22;13508;50.734;4.232;2023-12-07T09:14:26;5.70;99.90
25652;DHT22;13508;50.734;4.232;2023-12-07T09:17:29;5.60;99.90
25652;DHT22;13508;50.734;4.232;2023-12-07T09:20:33;5.70;99.90
25652;DHT22;13508;50.734;4.232;2023-12-07T09:23:39;5.90;99.90
25652;DHT22;13508;50.734;4.232;2023-12-07T09:26:43;5.80;99.90
25652;DHT22;13508;50.734;4.232;2023-12-07T09:29:46;5.70;99.90
25652;DHT22;13508;50.734;4.232;2023-12-07T09:32:50;5.80;99.90
25652;DHT22;13508;50.734;4.232;2023-12-07T09:35:53;5.90;99.90
25652;DHT22;13508;50.734;4.232;2023-12-07T09:39:00;5.90;99.90
25652;DHT22;13508;50.734;4.232;2023-12-07T09:42:03;6.20;99.90
25652;DHT22;13508;50.734;4.232;2023-12-07T09:45:07;6.20;99.90
25652;DHT22;13508;50.734;4.232;2023-12-07T09:48:12;6.10;99.90
25652;DHT22;13508;50.734;4.232;2023-12-07T09:51:16;6.10;99.90
25652;DHT22;13508;50.734;4.232;2023-12-07T09:54:20;6.00;99.90
25652;DHT22;13508;50.734;4.232;2023-12-07T09:57:25;5.80;99.90
25652;DHT22;13508;50.734;4.232;2023-12-07T10:00:29;6.00;99.90
25652;DHT22;13508;50.734;4.232;2023-12-07T10:03:32;6.20;99.90
25652;DHT22;13508;50.734;4.232;2023-12-07T10:06:43;6.40;99.90
25652;DHT22;13508;50.734;4.232;2023-12-07T10:09:50;6.50;99.90
25652;DHT22;13508;50.734;4.232;2023-12-07T10:12:56;6.60;99.90
25652;DHT22;13508;50.734;4.232;2023-12-07T10:16:12;6.70;99.90
25652;DHT22;13508;50.734;4.232;2023-12-07T10:19:17;6.70;99.90
25652;DHT22;13508;50.734;4.232;2023-12-07T10:22:24;6.70;99.90
25652;DHT22;13508;50.734;4.232;2023-12-07T10:25:32;6.80;99.90
25652;DHT22;13508;50.734;4.232;2023-12-07T10:28:39;6.50;99.90
25652;DHT22;13508;50.734;4.232;2023-12-07T10:31:43;6.60;99.90
25652;DHT22;13508;50.734;4.232;2023-12-07T10:34:47;6.40;99.90
25652;DHT22;13508;50.734;4.232;2023-12-07T10:37:50;6.70;99.90
25652;DHT22;13508;50.734;4.232;2023-12-07T10:41:05;7.00;99.90
25652;DHT22;13508;50.734;4.232;2023-12-07T10:44:13;7.10;99.90
25652;DHT22;13508;50.734;4.232;2023-12-07T10:47:18;7.20;99.90
25652;DHT22;13508;50.734;4.232;2023-12-07T10:50:23;7.30;99.90
25652;DHT22;13508;50.734;4.232;2023-12-07T10:53:27;7.10;99.90
25652;DHT22;13508;50.734;4.232;2023-12-07T10:56:43;7.10;99.90
25652;DHT22;13508;50.734;4.232;2023-12-07T10:59:47;7.30;99.90
25652;DHT22;13508;50.734;4.232;2023-12-07T11:02:53;7.30;99.90
25652;DHT22;13508;50.734;4.232;2023-12-07T11:05:56;7.20;99.90
25652;DHT22;13508;50.734;4.232;2023-12-07T11:09:09;7.50;99.90
25652;DHT22;13508;50.734;4.232;2023-12-07T11:12:19;7.30;99.90
25652;DHT22;13508;50.734;4.232;2023-12-07T11:15:26;7.80;99.90
25652;DHT22;13508;50.734;4.232;2023-12-07T11:18:30;8.10;99.90
25652;DHT22;13508;50.734;4.232;2023-12-07T11:21:34;8.10;99.90
25652;DHT22;13508;50.734;4.232;2023-12-07T11:24:44;8.00;99.90
25652;DHT22;13508;50.734;4.232;2023-12-07T11:28:05;8.30;99.90
25652;DHT22;13508;50.734;4.232;2023-12-07T11:31:11;8.10;99.90
25652;DHT22;13508;50.734;4.232;2023-12-07T11:34:39;8.20;99.90
25652;DHT22;13508;50.734;4.232;2023-12-07T11:38:04;8.40;99.90
25652;DHT22;13508;50.734;4.232;2023-12-07T11:41:11;8.30;99.90
25652;DHT22;13508;50.734;4.232;2023-12-07T11:44:17;8.20;99.90
25652;DHT22;13508;50.734;4.232;2023-12-07T11:47:21;8.00;99.90
25652;DHT22;13508;50.734;4.232;2023-12-07T11:50:24;8.00;99.90
25652;DHT22;13508;50.734;4.232;2023-12-07T11:53:29;7.80;99.90
25652;DHT22;13508;50.734;4.232;2023-12-07T11:56:33;8.10;99.90
25652;DHT22;13508;50.734;4.232;2023-12-07T11:59:37;8.30;99.90
25652;DHT22;13508;50.734;4.232;2023-12-07T12:02:41;8.10;99.90
25652;DHT22;13508;50.734;4.232;2023-12-07T12:05:45;8.40;99.90
25652;DHT22;13508;50.734;4.232;2023-12-07T12:08:49;8.30;99.90
25652;DHT22;13508;50.734;4.232;2023-12-07T12:11:53;8.00;99.90
25652;DHT22;13508;50.734;4.232;2023-12-07T12:14:59;7.90;99.90
25652;DHT22;13508;50.734;4.232;2023-12-07T12:18:06;7.70;99.90
25652;DHT22;13508;50.734;4.232;2023-12-07T12:21:09;7.80;99.90
25652;DHT22;13508;50.734;4.232;2023-12-07T12:24:13;7.80;99.90
25652;DHT22;13508;50.734;4.232;2023-12-07T12:27:17;8.00;99.90
25652;DHT22;13508;50.734;4.232;2023-12-07T12:30:22;8.00;99.90
25652;DHT22;13508;50.734;4.232;2023-12-07T12:33:26;7.60;99.90
25652;DHT22;13508;50.734;4.232;2023-12-07T12:36:31;7.40;99.90
25652;DHT22;13508;50.734;4.232;2023-12-07T12:39:34;7.60;99.90
25652;DHT22;13508;50.734;4.232;2023-12-07T12:42:38;7.70;99.90
25652;DHT22;13508;50.734;4.232;2023-12-07T12:45:42;7.80;99.90
25652;DHT22;13508;50.734;4.232;2023-12-07T12:48:55;7.70;99.90
25652;DHT22;13508;50.734;4.232;2023-12-07T12:52:00;7.60;99.90
25652;DHT22;13508;50.734;4.232;2023-12-07T12:55:07;7.60;99.90
25652;DHT22;13508;50.734;4.232;2023-12-07T12:58:11;7.80;99.90
25652;DHT22;13508;50.734;4.232;2023-12-07T13:01:16;7.60;99.90
25652;DHT22;13508;50.734;4.232;2023-12-07T13:04:20;7.40;99.90
25652;DHT22;13508;50.734;4.232;2023-12-07T13:07:27;7.30;99.90
25652;DHT22;13508;50.734;4.232;2023-12-07T13:10:31;7.20;99.90
25652;DHT22;13508;50.734;4.232;2023-12-07T13:13:35;7.30;99.90
25652;DHT22;13508;50.734;4.232;2023-12-07T13:16:41;7.30;99.90
25652;DHT22;13508;50.734;4.232;2023-12-07T13:19:47;7.40;99.90
25652;DHT22;13508;50.734;4.232;2023-12-07T13:22:51;7.30;99.90
25652;DHT22;13508;50.734;4.232;2023-12-07T13:25:55;7.40;99.90
25652;DHT22;13508;50.734;4.232;2023-12-07T13:29:00;7.30;99.90
25652;DHT22;13508;50.734;4.232;2023-12-07T13:32:04;7.30;99.90
25652;DHT22;13508;50.734;4.232;2023-12-07T13:35:08;7.20;99.90
25652;DHT22;13508;50.734;4.232;2023-12-07T13:38:12;7.10;99.90
25652;DHT22;13508;50.734;4.232;2023-12-07T13:41:16;7.00;99.90
25652;DHT22;13508;50.734;4.232;2023-12-07T13:44:20;6.90;99.90
25652;DHT22;13508;50.734;4.232;2023-12-07T13:47:24;6.80;99.90
25652;DHT22;13508;50.734;4.232;2023-12-07T13:50:39;6.80;99.90
25652;DHT22;13508;50.734;4.232;2023-12-07T13:53:43;7.00;99.90
25652;DHT22;13508;50.734;4.232;2023-12-07T13:56:52;7.00;99.90
25652;DHT22;13508;50.734;4.232;2023-12-07T13:59:57;7.00;99.90
25652;DHT22;13508;50.734;4.232;2023-12-07T14:03:00;7.00;99.90
25652;DHT22;13508;50.734;4.232;2023-12-07T14:06:04;7.10;99.90
25652;DHT22;13508;50.734;4.232;2023-12-07T14:09:08;7.10;99.90
25652;DHT22;13508;50.734;4.232;2023-12-07T14:12:15;7.10;99.90
25652;DHT22;13508;50.734;4.232;2023-12-07T14:15:18;7.00;99.90
25652;DHT22;13508;50.734;4.232;2023-12-07T14:18:22;7.10;99.90
25652;DHT22;13508;50.734;4.232;2023-12-07T14:21:26;7.10;99.90
25652;DHT22;13508;50.734;4.232;2023-12-07T14:24:30;7.10;99.90
25652;DHT22;13508;50.734;4.232;2023-12-07T14:27:33;7.00;99.90
25652;DHT22;13508;50.734;4.232;2023-12-07T14:30:39;6.90;99.90
25652;DHT22;13508;50.734;4.232;2023-12-07T14:33:43;6.90;99.90
25652;DHT22;13508;50.734;4.232;2023-12-07T14:36:47;6.80;99.90
25652;DHT22;13508;50.734;4.232;2023-12-07T14:39:51;6.80;99.90
25652;DHT22;13508;50.734;4.232;2023-12-07T14:42:54;6.70;99.90
25652;DHT22;13508;50.734;4.232;2023-12-07T14:45:57;6.70;99.90
25652;DHT22;13508;50.734;4.232;2023-12-07T14:49:01;6.70;99.90
25652;DHT22;13508;50.734;4.232;2023-12-07T14:52:06;6.90;99.90
25652;DHT22;13508;50.734;4.232;2023-12-07T14:55:09;7.10;99.90
25652;DHT22;13508;50.734;4.232;2023-12-07T14:58:13;7.10;99.90
25652;DHT22;13508;50.734;4.232;2023-12-07T15:01:16;7.10;99.90
25652;DHT22;13508;50.734;4.232;2023-12-07T15:04:23;7.00;99.90
25652;DHT22;13508;50.734;4.232;2023-12-07T15:07:29;7.10;99.90
25652;DHT22;13508;50.734;4.232;2023-12-07T15:10:33;7.00;99.90
25652;DHT22;13508;50.734;4.232;2023-12-07T15:13:36;7.00;99.90
25652;DHT22;13508;50.734;4.232;2023-12-07T15:16:40;6.90;99.90
25652;DHT22;13508;50.734;4.232;2023-12-07T15:19:43;7.00;99.90
25652;DHT22;13508;50.734;4.232;2023-12-07T15:22:47;7.00;99.90
25652;DHT22;13508;50.734;4.232;2023-12-07T15:25:51;6.90;99.90
25652;DHT22;13508;50.734;4.232;2023-12-07T15:28:55;6.70;99.90
25652;DHT22;13508;50.734;4.232;2023-12-07T15:31:58;6.60;99.90
25652;DHT22;13508;50.734;4.232;2023-12-07T15:35:02;6.70;99.90
25652;DHT22;13508;50.734;4.232;2023-12-07T15:38:06;6.70;99.90
25652;DHT22;13508;50.734;4.232;2023-12-07T15:41:10;6.60;99.90
25652;DHT22;13508;50.734;4.232;2023-12-07T15:44:14;6.50;99.90
25652;DHT22;13508;50.734;4.232;2023-12-07T15:47:17;6.50;99.90
25652;DHT22;13508;50.734;4.232;2023-12-07T15:50:22;6.40;99.90
25652;DHT22;13508;50.734;4.232;2023-12-07T15:53:25;6.40;99.90
25652;DHT22;13508;50.734;4.232;2023-12-07T15:56:29;6.40;99.90
25652;DHT22;13508;50.734;4.232;2023-12-07T15:59:33;6.30;99.90
25652;DHT22;13508;50.734;4.232;2023-12-07T16:02:36;6.20;99.90
25652;DHT22;13508;50.734;4.232;2023-12-07T16:05:40;6.30;99.90
25652;DHT22;13508;50.734;4.232;2023-12-07T16:08:43;6.30;99.90
25652;DHT22;13508;50.734;4.232;2023-12-07T16:11:47;6.40;99.90
25652;DHT22;13508;50.734;4.232;2023-12-07T16:14:52;6.50;99.90
25652;DHT22;13508;50.734;4.232;2023-12-07T16:17:59;6.60;99.90
25652;DHT22;13508;50.734;4.232;2023-12-07T16:21:02;6.50;99.90
25652;DHT22;13508;50.734;4.232;2023-12-07T16:24:06;6.60;99.90
25652;DHT22;13508;50.734;4.232;2023-12-07T16:27:10;6.60;99.90
25652;DHT22;13508;50.734;4.232;2023-12-07T16:30:14;6.60;99.90
25652;DHT22;13508;50.734;4.232;2023-12-07T16:33:18;6.70;99.90
25652;DHT22;13508;50.734;4.232;2023-12-07T16:36:22;6.60;99.90
25652;DHT22;13508;50.734;4.232;2023-12-07T16:39:25;6.60;99.90
25652;DHT22;13508;50.734;4.232;2023-12-07T16:42:29;6.50;99.90
25652;DHT22;13508;50.734;4.232;2023-12-07T16:45:32;6.50;99.90
25652;DHT22;13508;50.734;4.232;2023-12-07T16:48:36;6.60;99.90
25652;DHT22;13508;50.734;4.232;2023-12-07T16:51:39;6.50;99.90
25652;DHT22;13508;50.734;4.232;2023-12-07T16:54:43;6.30;99.90
25652;DHT22;13508;50.734;4.232;2023-12-07T16:57:46;6.40;99.90
25652;DHT22;13508;50.734;4.232;2023-12-07T17:00:50;6.50;99.90
25652;DHT22;13508;50.734;4.232;2023-12-07T17:03:54;6.40;99.90
25652;DHT22;13508;50.734;4.232;2023-12-07T17:06:58;6.50;99.90
25652;DHT22;13508;50.734;4.232;2023-12-07T17:10:02;6.60;99.90
25652;DHT22;13508;50.734;4.232;2023-12-07T17:13:05;6.50;99.90
25652;DHT22;13508;50.734;4.232;2023-12-07T17:16:11;6.60;99.90
25652;DHT22;13508;50.734;4.232;2023-12-07T17:19:15;6.60;99.90
25652;DHT22;13508;50.734;4.232;2023-12-07T17:22:18;6.60;99.90
25652;DHT22;13508;50.734;4.232;2023-12-07T17:25:22;6.50;99.90
25652;DHT22;13508;50.734;4.232;2023-12-07T17:28:26;6.40;99.90
25652;DHT22;13508;50.734;4.232;2023-12-07T17:31:30;6.30;99.90
25652;DHT22;13508;50.734;4.232;2023-12-07T17:34:36;6.50;99.90
25652;DHT22;13508;50.734;4.232;2023-12-07T17:37:40;6.50;99.90
25652;DHT22;13508;50.734;4.232;2023-12-07T17:40:43;6.50;99.90
25652;DHT22;13508;50.734;4.232;2023-12-07T17:43:48;6.40;99.90
25652;DHT22;13508;50.734;4.232;2023-12-07T17:46:52;6.30;99.90
25652;DHT22;13508;50.734;4.232;2023-12-07T17:49:56;6.50;99.90
25652;DHT22;13508;50.734;4.232;2023-12-07T17:53:00;6.50;99.90
25652;DHT22;13508;50.734;4.232;2023-12-07T17:56:04;6.50;99.90
25652;DHT22;13508;50.734;4.232;2023-12-07T17:59:13;6.30;99.90
25652;DHT22;13508;50.734;4.232;2023-12-07T18:02:19;6.30;99.90
25652;DHT22;13508;50.734;4.232;2023-12-07T18:05:22;6.20;99.90
25652;DHT22;13508;50.734;4.232;2023-12-07T18:08:26;6.30;99.90
25652;DHT22;13508;50.734;4.232;2023-12-07T18:11:30;6.20;99.90
25652;DHT22;13508;50.734;4.232;2023-12-07T18:14:39;6.30;99.90
25652;DHT22;13508;50.734;4.232;2023-12-07T18:17:42;6.30;99.90
25652;DHT22;13508;50.734;4.232;2023-12-07T18:20:46;6.40;99.90
25652;DHT22;13508;50.734;4.232;2023-12-07T18:23:50;6.30;99.90
25652;DHT22;13508;50.734;4.232;2023-12-07T18:26:57;6.20;99.90
25652;DHT22;13508;50.734;4.232;2023-12-07T18:30:02;6.20;99.90
25652;DHT22;13508;50.734;4.232;2023-12-07T18:33:05;6.20;99.90
25652;DHT22;13508;50.734;4.232;2023-12-07T18:36:11;6.20;99.90
25652;DHT22;13508;50.734;4.232;2023-12-07T18:39:15;6.20;99.90
25652;DHT22;13508;50.734;4.232;2023-12-07T18:42:18;6.20;99.90
25652;DHT22;13508;50.734;4.232;2023-12-07T18:45:22;6.40;99.90
25652;DHT22;13508;50.734;4.232;2023-12-07T18:48:25;6.20;99.90
25652;DHT22;13508;50.734;4.232;2023-12-07T18:51:33;6.20;99.90
25652;DHT22;13508;50.734;4.232;2023-12-07T18:54:39;6.30;99.90
25652;DHT22;13508;50.734;4.232;2023-12-07T18:57:45;6.20;99.90
25652;DHT22;13508;50.734;4.232;2023-12-07T19:00:48;6.20;99.90
25652;DHT22;13508;50.734;4.232;2023-12-07T19:03:52;6.30;99.90
25652;DHT22;13508;50.734;4.232;2023-12-07T19:06:56;6.40;99.90
25652;DHT22;13508;50.734;4.232;2023-12-07T19:10:00;6.50;99.90
25652;DHT22;13508;50.734;4.232;2023-12-07T19:13:04;6.40;99.90
25652;DHT22;13508;50.734;4.232;2023-12-07T19:16:08;6.50;99.90
25652;DHT22;13508;50.734;4.232;2023-12-07T19:19:13;6.60;99.90
25652;DHT22;13508;50.734;4.232;2023-12-07T19:22:16;6.50;99.90
25652;DHT22;13508;50.734;4.232;2023-12-07T19:25:20;6.50;99.90
25652;DHT22;13508;50.734;4.232;2023-12-07T19:28:26;6.50;99.90
25652;DHT22;13508;50.734;4.232;2023-12-07T19:31:33;6.50;99.90
25652;DHT22;13508;50.734;4.232;2023-12-07T19:34:36;6.40;99.90
25652;DHT22;13508;50.734;4.232;2023-12-07T19:37:41;6.30;99.90
25652;DHT22;13508;50.734;4.232;2023-12-07T19:40:44;6.30;99.90
25652;DHT22;13508;50.734;4.232;2023-12-07T19:43:48;6.20;99.90
25652;DHT22;13508;50.734;4.232;2023-12-07T19:46:52;6.30;99.90